Time;durP1;ratioP1;P1;durP2;ratioP2;P2;SDS_P1;SDS_P2;PMS_P1;PMS_P2;Temp;Humidity;BMP_temperature;BMP_pressure;BME280_temperature;BME280_humidity;BME280_pressure;Samples;Min_cycle;Max_cycle;Signal;HPM_P1;HPM_P2
2021/04/08 00:01:17;;;;;;;;;;;5.90;90.20;;;;;;5022819;28;87186;-72
2021/04/08 00:03:43;;;;;;;;;;;5.90;90.20;;;;;;5018244;28;87161;-72
2021/04/08 00:06:08;;;;;;;;;;;5.90;90.30;;;;;;5017737;28;87160;-72
2021/04/08 00:08:34;;;;;;;;;;;5.90;90.20;;;;;;5019038;28;86831;-72
2021/04/08 00:10:59;;;;;;;;;;;5.90;90.20;;;;;;5020141;28;87179;-72
2021/04/08 00:13:25;;;;;;;;;;;5.90;90.20;;;;;;5019658;28;87587;-72
2021/04/08 00:15:51;;;;;;;;;;;5.90;90.20;;;;;;5017866;28;89276;-72
2021/04/08 00:18:17;;;;;;;;;;;5.90;90.20;;;;;;5018090;28;87165;-72
2021/04/08 00:20:42;;;;;;;;;;;5.90;90.20;;;;;;5018453;28;88795;-72
2021/04/08 00:23:08;;;;;;;;;;;5.80;90.20;;;;;;5024827;28;88893;-72
2021/04/08 00:25:36;;;;;;;;;;;5.80;90.20;;;;;;5018992;28;87955;-72
2021/04/08 00:28:01;;;;;;;;;;;5.80;90.50;;;;;;5021234;28;88271;-72
2021/04/08 00:30:27;;;;;;;;;;;5.80;90.20;;;;;;5020407;28;87183;-72
2021/04/08 00:32:52;;;;;;;;;;;5.80;90.20;;;;;;5017877;28;87366;-72
2021/04/08 00:35:18;;;;;;;;;;;5.80;90.20;;;;;;5018071;28;88149;-72
2021/04/08 00:37:43;;;;;;;;;;;5.80;90.20;;;;;;5019712;28;87141;-72
2021/04/08 00:40:10;;;;;;;;;;;5.80;90.20;;;;;;5020288;28;88173;-72
2021/04/08 00:42:36;;;;;;;;;;;5.70;90.20;;;;;;5022532;28;88623;-72
2021/04/08 00:45:02;;;;;;;;;;;5.80;90.20;;;;;;5021037;28;87855;-72
2021/04/08 00:47:28;;;;;;;;;;;5.80;90.20;;;;;;5020945;28;88387;-72
2021/04/08 00:49:53;;;;;;;;;;;5.70;90.10;;;;;;5020317;28;87612;-72
2021/04/08 00:52:19;;;;;;;;;;;5.70;90.10;;;;;;5017162;28;87501;-72
2021/04/08 00:54:45;;;;;;;;;;;5.70;90.20;;;;;;5017582;28;87387;-72
2021/04/08 00:57:11;;;;;;;;;;;5.70;90.20;;;;;;5018589;28;86500;-72
2021/04/08 00:59:36;;;;;;;;;;;5.70;90.20;;;;;;5019432;28;87171;-72
2021/04/08 01:02:02;;;;;;;;;;;5.70;90.20;;;;;;5020037;28;88367;-72
2021/04/08 01:04:28;;;;;;;;;;;5.70;90.20;;;;;;5023480;28;88162;-72
2021/04/08 01:06:53;;;;;;;;;;;5.60;90.20;;;;;;5017942;28;88792;-72
2021/04/08 01:09:19;;;;;;;;;;;5.70;90.10;;;;;;5017107;28;87168;-72
2021/04/08 01:11:44;;;;;;;;;;;5.70;90.20;;;;;;5018352;28;88015;-72
2021/04/08 01:14:10;;;;;;;;;;;5.60;90.20;;;;;;5017369;28;88568;-72
2021/04/08 01:16:49;;;;;;;;;;;5.60;90.10;;;;;;5016707;28;87191;-72
2021/04/08 01:19:24;;;;;;;;;;;5.60;90.10;;;;;;5018679;28;87438;-72
2021/04/08 01:22:00;;;;;;;;;;;5.60;90.10;;;;;;5020279;28;86872;-72
2021/04/08 01:24:31;;;;;;;;;;;5.60;90.10;;;;;;5020187;28;87924;-72
2021/04/08 01:27:09;;;;;;;;;;;5.60;90.10;;;;;;5023355;28;88058;-72
2021/04/08 01:29:53;;;;;;;;;;;5.60;90.10;;;;;;5019413;28;88100;-72
2021/04/08 01:32:19;;;;;;;;;;;5.60;90.20;;;;;;5016232;28;87824;-72
2021/04/08 01:34:48;;;;;;;;;;;5.60;90.10;;;;;;5016706;28;87676;-72
2021/04/08 01:37:14;;;;;;;;;;;5.60;90.10;;;;;;5020961;28;88619;-72
2021/04/08 01:39:41;;;;;;;;;;;5.60;90.10;;;;;;5021129;28;87170;-72
2021/04/08 01:42:07;;;;;;;;;;;5.60;90.10;;;;;;5018827;28;88101;-72
2021/04/08 01:44:34;;;;;;;;;;;5.60;90.10;;;;;;5019557;28;87197;-72
2021/04/08 01:47:01;;;;;;;;;;;5.60;90.10;;;;;;5019485;28;87399;-72
2021/04/08 01:49:28;;;;;;;;;;;5.50;90.10;;;;;;5020330;28;87738;-72
2021/04/08 01:51:55;;;;;;;;;;;5.50;90.10;;;;;;5017909;28;87188;-72
2021/04/08 01:54:21;;;;;;;;;;;5.50;90.10;;;;;;5015659;28;89026;-72
2021/04/08 01:56:47;;;;;;;;;;;5.50;90.20;;;;;;5017640;28;87123;-72
2021/04/08 01:59:14;;;;;;;;;;;5.50;90.20;;;;;;5018413;28;87177;-72
2021/04/08 02:01:41;;;;;;;;;;;5.50;90.20;;;;;;5015625;28;91791;-72
2021/04/08 02:04:07;;;;;;;;;;;5.50;90.20;;;;;;5015755;28;87174;-72
2021/04/08 02:06:35;;;;;;;;;;;5.50;90.20;;;;;;5020852;28;87620;-72
2021/04/08 02:09:01;;;;;;;;;;;5.50;90.10;;;;;;5017151;28;88131;-72
2021/04/08 02:11:27;;;;;;;;;;;5.50;90.20;;;;;;5019812;28;86393;-72
2021/04/08 02:13:55;;;;;;;;;;;5.40;90.20;;;;;;5015801;28;88081;-72
2021/04/08 02:16:21;;;;;;;;;;;5.40;90.20;;;;;;5022621;28;87637;-72
2021/04/08 02:18:52;;;;;;;;;;;5.40;90.20;;;;;;5021065;28;89490;-72
2021/04/08 02:21:19;;;;;;;;;;;5.40;90.20;;;;;;5020385;28;88099;-72
2021/04/08 02:23:44;;;;;;;;;;;5.40;90.20;;;;;;5021462;28;88823;-72
2021/04/08 02:26:11;;;;;;;;;;;5.40;90.30;;;;;;5019501;28;88042;-72
2021/04/08 02:28:38;;;;;;;;;;;5.40;90.30;;;;;;5019517;28;87661;-72
2021/04/08 02:31:04;;;;;;;;;;;5.40;90.20;;;;;;5020017;28;87998;-72
2021/04/08 02:33:30;;;;;;;;;;;5.40;90.30;;;;;;5024441;28;88586;-72
2021/04/08 02:35:56;;;;;;;;;;;5.40;90.20;;;;;;5022937;28;87997;-72
2021/04/08 02:38:23;;;;;;;;;;;5.30;90.20;;;;;;5021577;28;88824;-72
2021/04/08 02:40:49;;;;;;;;;;;5.40;90.20;;;;;;5023439;28;87880;-72
2021/04/08 02:43:15;;;;;;;;;;;5.40;90.30;;;;;;5021262;28;89063;-72
2021/04/08 02:45:41;;;;;;;;;;;5.40;90.20;;;;;;5018924;28;88544;-72
2021/04/08 02:48:10;;;;;;;;;;;5.30;90.20;;;;;;5019656;28;87836;-72
2021/04/08 02:50:36;;;;;;;;;;;5.30;90.30;;;;;;5022886;28;87177;-72
2021/04/08 02:53:06;;;;;;;;;;;5.30;90.30;;;;;;5025142;28;87176;-72
2021/04/08 02:55:38;;;;;;;;;;;5.30;90.30;;;;;;5021668;28;88746;-72
2021/04/08 02:58:04;;;;;;;;;;;5.30;90.20;;;;;;5022093;28;88210;-72
2021/04/08 03:00:34;;;;;;;;;;;5.30;90.20;;;;;;5023076;28;87863;-72
2021/04/08 03:03:02;;;;;;;;;;;5.30;90.20;;;;;;5018669;28;87135;-72
2021/04/08 03:05:29;;;;;;;;;;;5.30;90.30;;;;;;5023279;28;87329;-72
2021/04/08 03:07:56;;;;;;;;;;;5.30;90.30;;;;;;5020778;28;89201;-72
2021/04/08 03:10:22;;;;;;;;;;;5.30;90.30;;;;;;5022658;28;87178;-73
2021/04/08 03:12:49;;;;;;;;;;;5.30;90.30;;;;;;5022529;28;87173;-72
2021/04/08 03:15:20;;;;;;;;;;;5.20;90.30;;;;;;5024046;28;88115;-72
2021/04/08 03:17:48;;;;;;;;;;;5.20;90.30;;;;;;5021346;28;87796;-72
2021/04/08 03:20:14;;;;;;;;;;;5.20;90.30;;;;;;5018617;28;88012;-72
2021/04/08 03:22:40;;;;;;;;;;;5.20;90.20;;;;;;5018368;28;87140;-72
2021/04/08 03:25:07;;;;;;;;;;;5.20;90.30;;;;;;5019282;28;87018;-72
2021/04/08 03:27:33;;;;;;;;;;;5.20;90.30;;;;;;5022476;28;87737;-72
2021/04/08 03:29:58;;;;;;;;;;;5.20;90.30;;;;;;5021481;28;87175;-72
2021/04/08 03:32:25;;;;;;;;;;;5.20;90.30;;;;;;5019747;28;88104;-72
2021/04/08 03:34:51;;;;;;;;;;;5.20;90.30;;;;;;5017645;28;88436;-73
2021/04/08 03:37:17;;;;;;;;;;;5.20;90.30;;;;;;5025669;28;88628;-72
2021/04/08 03:39:43;;;;;;;;;;;5.20;90.30;;;;;;5022153;28;88122;-72
2021/04/08 03:42:15;;;;;;;;;;;5.20;90.30;;;;;;5022003;28;87156;-72
2021/04/08 03:44:41;;;;;;;;;;;5.20;90.30;;;;;;5020067;28;88445;-72
2021/04/08 03:47:07;;;;;;;;;;;5.20;90.30;;;;;;5020523;28;88225;-72
2021/04/08 03:49:33;;;;;;;;;;;5.10;90.30;;;;;;5022128;28;86409;-72
2021/04/08 03:51:59;;;;;;;;;;;5.20;90.30;;;;;;5020854;28;87162;-72
2021/04/08 03:54:26;;;;;;;;;;;5.20;90.30;;;;;;5019688;28;87708;-72
2021/04/08 03:56:52;;;;;;;;;;;5.10;90.30;;;;;;5019578;28;88476;-72
2021/04/08 03:59:18;;;;;;;;;;;5.10;90.30;;;;;;5022663;28;87202;-72
2021/04/08 04:01:44;;;;;;;;;;;5.10;90.30;;;;;;5019883;28;87146;-72
2021/04/08 04:04:11;;;;;;;;;;;5.10;90.30;;;;;;5019464;28;87149;-73
2021/04/08 04:06:40;;;;;;;;;;;5.10;90.30;;;;;;5019296;28;87589;-72
2021/04/08 04:09:06;;;;;;;;;;;5.10;90.40;;;;;;5022523;28;87169;-73
2021/04/08 04:11:34;;;;;;;;;;;5.10;90.30;;;;;;5020479;28;88124;-72
2021/04/08 04:14:00;;;;;;;;;;;5.10;90.30;;;;;;5021671;28;86964;-72
2021/04/08 04:16:26;;;;;;;;;;;5.10;90.40;;;;;;5021172;28;87181;-75
2021/04/08 04:18:52;;;;;;;;;;;5.10;90.40;;;;;;5021350;28;87130;-73
2021/04/08 04:21:17;;;;;;;;;;;5.10;90.40;;;;;;5022606;28;88473;-73
2021/04/08 04:23:43;;;;;;;;;;;5.10;90.40;;;;;;5019755;28;87919;-73
2021/04/08 04:26:08;;;;;;;;;;;5.00;90.30;;;;;;5019479;28;87580;-72
2021/04/08 04:28:34;;;;;;;;;;;5.00;90.30;;;;;;5021082;28;87209;-73
2021/04/08 04:30:59;;;;;;;;;;;5.10;90.40;;;;;;5021680;28;88394;-73
2021/04/08 04:33:25;;;;;;;;;;;5.00;90.30;;;;;;5018222;28;87244;-72
2021/04/08 04:35:54;;;;;;;;;;;5.00;90.30;;;;;;5017802;28;87147;-73
2021/04/08 04:38:19;;;;;;;;;;;5.00;90.40;;;;;;5021101;28;87052;-72
2021/04/08 04:40:45;;;;;;;;;;;5.00;90.40;;;;;;5020423;28;87851;-72
2021/04/08 04:43:10;;;;;;;;;;;5.00;90.40;;;;;;5022940;28;87198;-72
2021/04/08 04:45:36;;;;;;;;;;;5.00;90.30;;;;;;5018199;28;88722;-72
2021/04/08 04:48:01;;;;;;;;;;;5.00;90.30;;;;;;5019909;28;87224;-72
2021/04/08 04:50:28;;;;;;;;;;;5.00;90.40;;;;;;5021118;28;87653;-72
2021/04/08 04:52:53;;;;;;;;;;;5.00;90.40;;;;;;5019617;28;88088;-73
2021/04/08 04:55:19;;;;;;;;;;;5.00;90.40;;;;;;5019118;28;87236;-72
2021/04/08 04:57:44;;;;;;;;;;;5.00;90.40;;;;;;5018554;28;87565;-72
2021/04/08 05:00:10;;;;;;;;;;;5.00;90.40;;;;;;5018924;28;88188;-73
2021/04/08 05:02:36;;;;;;;;;;;5.00;90.40;;;;;;5023693;28;86875;-73
2021/04/08 05:05:02;;;;;;;;;;;4.90;90.40;;;;;;5021010;28;87246;-72
2021/04/08 05:07:27;;;;;;;;;;;5.00;90.40;;;;;;5019879;28;88348;-72
2021/04/08 05:09:52;;;;;;;;;;;5.00;90.40;;;;;;5018249;28;89338;-72
2021/04/08 05:12:18;;;;;;;;;;;4.90;90.30;;;;;;5016300;28;89421;-73
2021/04/08 05:14:44;;;;;;;;;;;4.90;90.30;;;;;;5017490;28;87143;-72
2021/04/08 05:17:09;;;;;;;;;;;4.90;90.30;;;;;;5018727;28;87547;-73
2021/04/08 05:19:35;;;;;;;;;;;4.90;90.30;;;;;;5019760;28;87605;-73
2021/04/08 05:22:00;;;;;;;;;;;4.90;90.30;;;;;;5021454;28;87315;-72
2021/04/08 05:24:26;;;;;;;;;;;4.90;90.30;;;;;;5020689;28;88582;-72
2021/04/08 05:26:51;;;;;;;;;;;4.90;90.70;;;;;;5017414;28;86446;-73
2021/04/08 05:29:17;;;;;;;;;;;4.90;90.40;;;;;;5017563;28;87114;-73
2021/04/08 05:31:42;;;;;;;;;;;4.90;90.40;;;;;;5017513;28;88106;-72
2021/04/08 05:34:08;;;;;;;;;;;4.90;90.40;;;;;;5018667;28;88123;-72
2021/04/08 05:36:33;;;;;;;;;;;4.90;90.40;;;;;;5020320;28;88222;-73
2021/04/08 05:38:59;;;;;;;;;;;4.90;90.40;;;;;;5019860;28;87791;-72
2021/04/08 05:41:24;;;;;;;;;;;4.90;90.40;;;;;;5020047;28;88582;-72
2021/04/08 05:43:50;;;;;;;;;;;4.90;90.40;;;;;;5016894;28;88424;-72
2021/04/08 05:46:16;;;;;;;;;;;4.90;90.40;;;;;;5019477;28;88040;-73
2021/04/08 05:48:41;;;;;;;;;;;4.90;90.40;;;;;;5017773;28;87381;-72
2021/04/08 05:51:07;;;;;;;;;;;4.80;90.40;;;;;;5018303;28;87506;-73
2021/04/08 05:53:32;;;;;;;;;;;4.90;90.40;;;;;;5020334;28;87157;-73
2021/04/08 05:55:58;;;;;;;;;;;4.80;90.40;;;;;;5018789;28;88581;-73
2021/04/08 05:58:24;;;;;;;;;;;4.90;90.50;;;;;;5015009;28;89114;-72
2021/04/08 06:00:49;;;;;;;;;;;4.80;90.40;;;;;;5016600;28;87167;-73
2021/04/08 06:03:15;;;;;;;;;;;4.90;90.50;;;;;;5016833;28;87203;-72
2021/04/08 06:05:40;;;;;;;;;;;4.90;90.40;;;;;;5017844;28;87952;-72
2021/04/08 06:08:06;;;;;;;;;;;4.90;90.40;;;;;;5022025;28;87185;-72
2021/04/08 06:10:32;;;;;;;;;;;4.90;90.40;;;;;;5018625;28;88002;-72
2021/04/08 06:12:57;;;;;;;;;;;4.80;90.40;;;;;;5019341;28;87174;-72
2021/04/08 06:15:23;;;;;;;;;;;4.80;90.40;;;;;;5018869;28;86917;-72
2021/04/08 06:17:48;;;;;;;;;;;4.80;90.40;;;;;;5017228;28;88184;-72
2021/04/08 06:20:14;;;;;;;;;;;4.80;90.50;;;;;;5018071;28;87195;-72
2021/04/08 06:22:40;;;;;;;;;;;4.90;90.40;;;;;;5018180;28;88147;-72
2021/04/08 06:25:05;;;;;;;;;;;4.80;90.40;;;;;;5019581;28;87554;-72
2021/04/08 06:27:34;;;;;;;;;;;4.90;90.40;;;;;;5019906;28;88090;-72
2021/04/08 06:30:00;;;;;;;;;;;4.80;90.40;;;;;;5019996;28;87155;-72
2021/04/08 06:32:26;;;;;;;;;;;4.90;90.40;;;;;;5018086;28;87174;-72
2021/04/08 06:34:51;;;;;;;;;;;4.80;90.40;;;;;;5018115;28;87444;-72
2021/04/08 06:37:17;;;;;;;;;;;4.80;90.40;;;;;;5018935;28;87132;-72
2021/04/08 06:39:42;;;;;;;;;;;4.80;90.40;;;;;;5020730;28;88105;-72
2021/04/08 06:42:08;;;;;;;;;;;4.80;90.30;;;;;;5017010;28;88643;-72
2021/04/08 06:44:35;;;;;;;;;;;4.80;90.40;;;;;;5014959;28;89712;-72
2021/04/08 06:47:05;;;;;;;;;;;4.80;90.30;;;;;;5016927;28;88176;-72
2021/04/08 06:49:36;;;;;;;;;;;4.80;90.30;;;;;;5019515;28;88643;-72
2021/04/08 06:52:02;;;;;;;;;;;4.80;90.40;;;;;;5016529;28;87818;-73
2021/04/08 06:54:28;;;;;;;;;;;4.80;90.40;;;;;;5016648;28;89158;-72
2021/04/08 06:56:54;;;;;;;;;;;4.80;90.40;;;;;;5016552;28;87591;-72
2021/04/08 06:59:20;;;;;;;;;;;4.80;90.40;;;;;;5018035;28;87175;-72
2021/04/08 07:01:46;;;;;;;;;;;4.80;90.30;;;;;;5020901;28;87134;-72
2021/04/08 07:04:12;;;;;;;;;;;4.80;90.40;;;;;;5021525;28;87440;-72
2021/04/08 07:06:38;;;;;;;;;;;4.80;90.30;;;;;;5019359;28;87270;-72
2021/04/08 07:09:06;;;;;;;;;;;4.80;90.40;;;;;;5018382;28;87925;-73
2021/04/08 07:11:32;;;;;;;;;;;4.80;90.40;;;;;;5022907;28;88613;-72
2021/04/08 07:13:59;;;;;;;;;;;4.80;90.40;;;;;;5019599;28;88516;-72
2021/04/08 07:16:25;;;;;;;;;;;4.90;90.40;;;;;;5022686;28;88036;-72
2021/04/08 07:18:53;;;;;;;;;;;4.90;90.40;;;;;;5022869;28;87150;-72
2021/04/08 07:21:18;;;;;;;;;;;4.80;90.40;;;;;;5020393;28;87159;-72
2021/04/08 07:24:07;;;;;;;;;;;4.80;90.40;;;;;;5019281;28;87417;-72
2021/04/08 07:26:48;;;;;;;;;;;4.80;90.40;;;;;;5015281;28;87208;-72
2021/04/08 07:29:13;;;;;;;;;;;4.80;90.30;;;;;;5021591;28;87426;-72
2021/04/08 07:31:39;;;;;;;;;;;4.80;90.20;;;;;;5021892;28;87719;-72
2021/04/08 07:34:04;;;;;;;;;;;4.80;90.30;;;;;;5025537;28;87159;-72
2021/04/08 07:36:34;;;;;;;;;;;4.90;90.50;;;;;;5020431;28;89424;-72
2021/04/08 07:39:07;;;;;;;;;;;4.80;90.30;;;;;;5022793;28;87696;-72
2021/04/08 07:41:36;;;;;;;;;;;4.80;90.20;;;;;;5018742;28;87183;-72
2021/04/08 07:44:04;;;;;;;;;;;4.80;90.20;;;;;;5018054;28;88405;-72
2021/04/08 07:46:43;;;;;;;;;;;4.80;90.20;;;;;;5020926;28;87988;-72
2021/04/08 07:49:28;;;;;;;;;;;4.80;90.10;;;;;;5020182;28;87253;-72
2021/04/08 07:51:54;;;;;;;;;;;4.80;90.00;;;;;;5021784;28;88740;-72
2021/04/08 07:54:20;;;;;;;;;;;4.80;90.10;;;;;;5021683;28;86409;-72
2021/04/08 07:56:46;;;;;;;;;;;4.80;90.10;;;;;;5024826;28;87133;-72
2021/04/08 07:59:18;;;;;;;;;;;4.80;90.10;;;;;;5020534;28;87142;-72
2021/04/08 08:01:44;;;;;;;;;;;4.80;90.20;;;;;;5017355;28;88141;-72
2021/04/08 08:04:20;;;;;;;;;;;4.80;90.20;;;;;;5017997;28;88212;-72
2021/04/08 08:06:46;;;;;;;;;;;4.80;90.20;;;;;;5017837;28;87145;-72
2021/04/08 08:09:11;;;;;;;;;;;4.80;90.20;;;;;;5017817;28;87700;-72
2021/04/08 08:11:40;;;;;;;;;;;4.80;90.20;;;;;;5018442;28;88451;-72
2021/04/08 08:14:06;;;;;;;;;;;4.80;90.20;;;;;;5021295;28;87144;-72
2021/04/08 08:16:31;;;;;;;;;;;4.80;90.20;;;;;;5019352;28;88774;-72
2021/04/08 08:18:58;;;;;;;;;;;4.80;90.20;;;;;;5020891;28;87491;-72
2021/04/08 08:21:27;;;;;;;;;;;4.80;90.20;;;;;;5017066;28;87492;-72
2021/04/08 08:23:54;;;;;;;;;;;4.80;90.20;;;;;;5020477;28;88194;-72
2021/04/08 08:26:32;;;;;;;;;;;4.80;90.20;;;;;;5019731;28;88073;-72
2021/04/08 08:29:17;;;;;;;;;;;4.80;90.20;;;;;;5018687;28;88903;-72
2021/04/08 08:31:48;;;;;;;;;;;4.80;90.10;;;;;;5019180;28;88387;-72
2021/04/08 08:34:13;;;;;;;;;;;4.80;90.10;;;;;;5021701;28;87170;-72
2021/04/08 08:36:40;;;;;;;;;;;4.80;90.00;;;;;;5021106;28;88122;-72
2021/04/08 08:39:07;;;;;;;;;;;4.80;90.10;;;;;;5020486;28;88360;-72
2021/04/08 08:41:34;;;;;;;;;;;4.80;90.10;;;;;;5024611;28;87149;-72
2021/04/08 08:44:01;;;;;;;;;;;4.80;90.10;;;;;;5020608;28;86399;-72
2021/04/08 08:46:27;;;;;;;;;;;4.80;90.20;;;;;;5019576;28;87100;-72
2021/04/08 08:48:53;;;;;;;;;;;4.80;90.20;;;;;;5020843;28;87294;-72
2021/04/08 08:51:19;;;;;;;;;;;4.80;90.10;;;;;;5019794;28;88106;-72
2021/04/08 08:53:45;;;;;;;;;;;4.80;90.20;;;;;;5020404;28;87239;-72
2021/04/08 08:56:11;;;;;;;;;;;4.80;90.20;;;;;;5020856;28;87117;-72
2021/04/08 08:58:37;;;;;;;;;;;4.80;90.20;;;;;;5020736;28;88651;-72
2021/04/08 09:01:03;;;;;;;;;;;4.80;90.20;;;;;;5024273;28;87231;-72
2021/04/08 09:03:29;;;;;;;;;;;4.80;90.10;;;;;;5019398;28;87615;-72
2021/04/08 09:05:57;;;;;;;;;;;4.80;90.10;;;;;;5018587;28;88096;-72
2021/04/08 09:08:26;;;;;;;;;;;4.80;90.20;;;;;;5021911;28;87541;-72
2021/04/08 09:10:52;;;;;;;;;;;4.80;90.20;;;;;;5017306;28;88216;-72
2021/04/08 09:13:18;;;;;;;;;;;4.80;90.20;;;;;;5017638;28;87154;-72
2021/04/08 09:15:44;;;;;;;;;;;4.80;90.20;;;;;;5015993;28;90727;-72
2021/04/08 09:18:09;;;;;;;;;;;4.80;90.20;;;;;;5019035;28;87920;-72
2021/04/08 09:20:36;;;;;;;;;;;4.80;90.20;;;;;;5020578;28;87143;-72
2021/04/08 09:23:03;;;;;;;;;;;4.80;90.20;;;;;;5023364;28;87169;-72
2021/04/08 09:25:33;;;;;;;;;;;4.90;90.30;;;;;;5017705;28;87180;-72
2021/04/08 09:28:18;;;;;;;;;;;4.90;90.30;;;;;;5020313;28;87142;-72
2021/04/08 09:30:53;;;;;;;;;;;4.90;90.20;;;;;;5017997;28;88808;-72
2021/04/08 09:33:20;;;;;;;;;;;4.90;90.20;;;;;;5021432;28;86753;-72
2021/04/08 09:35:46;;;;;;;;;;;4.80;90.00;;;;;;5018923;28;87169;-72
2021/04/08 09:38:11;;;;;;;;;;;4.80;90.10;;;;;;5017739;28;87626;-72
2021/04/08 09:40:38;;;;;;;;;;;4.80;90.10;;;;;;5016992;28;88115;-72
2021/04/08 09:43:05;;;;;;;;;;;4.80;90.20;;;;;;5016863;28;88156;-72
2021/04/08 09:45:32;;;;;;;;;;;4.90;90.10;;;;;;5023618;28;87307;-72
2021/04/08 09:48:16;;;;;;;;;;;4.90;89.90;;;;;;5019272;28;87175;-72
2021/04/08 09:50:47;;;;;;;;;;;4.90;89.70;;;;;;5017902;28;88807;-72
2021/04/08 09:53:13;;;;;;;;;;;4.90;89.60;;;;;;5017649;28;87214;-72
2021/04/08 09:55:41;;;;;;;;;;;4.90;89.50;;;;;;5019114;28;87823;-72
2021/04/08 09:58:06;;;;;;;;;;;4.90;89.60;;;;;;5020246;28;86818;-72
2021/04/08 10:00:33;;;;;;;;;;;4.90;89.90;;;;;;5019882;28;88343;-72
2021/04/08 10:03:06;;;;;;;;;;;4.90;89.80;;;;;;5020435;28;87168;-72
2021/04/08 10:05:35;;;;;;;;;;;4.90;89.70;;;;;;5017809;28;88840;-72
2021/04/08 10:08:01;;;;;;;;;;;4.90;89.60;;;;;;5021714;28;87968;-72
2021/04/08 10:10:36;;;;;;;;;;;4.90;89.60;;;;;;5017018;28;88419;-72
2021/04/08 10:13:12;;;;;;;;;;;4.90;89.50;;;;;;5018025;28;87172;-72
2021/04/08 10:15:38;;;;;;;;;;;5.00;89.70;;;;;;5017969;28;87142;-72
2021/04/08 10:18:08;;;;;;;;;;;4.90;89.60;;;;;;5019093;28;88163;-72
2021/04/08 10:20:38;;;;;;;;;;;4.90;89.90;;;;;;5020676;28;87217;-72
2021/04/08 10:23:04;;;;;;;;;;;4.90;89.80;;;;;;5014794;28;87859;-72
2021/04/08 10:25:30;;;;;;;;;;;4.90;89.80;;;;;;5016047;28;88543;-72
2021/04/08 10:27:56;;;;;;;;;;;4.90;89.80;;;;;;5017361;28;87154;-72
2021/04/08 10:30:21;;;;;;;;;;;4.90;89.70;;;;;;5020310;28;88063;-72
2021/04/08 10:32:47;;;;;;;;;;;5.00;89.90;;;;;;5019398;28;87151;-72
2021/04/08 10:35:26;;;;;;;;;;;5.00;90.00;;;;;;5019916;28;87137;-72
2021/04/08 10:38:07;;;;;;;;;;;5.00;89.90;;;;;;5019378;28;88576;-72
2021/04/08 10:40:33;;;;;;;;;;;5.00;89.90;;;;;;5023882;28;87173;-72
2021/04/08 10:43:15;;;;;;;;;;;5.00;90.20;;;;;;5023542;28;87314;-72
2021/04/08 10:45:59;;;;;;;;;;;5.00;89.90;;;;;;5021402;28;87542;-72
2021/04/08 10:48:26;;;;;;;;;;;5.00;90.00;;;;;;5021395;28;87102;-72
2021/04/08 10:50:52;;;;;;;;;;;5.00;90.00;;;;;;5021875;28;87104;-72
2021/04/08 10:53:19;;;;;;;;;;;5.00;89.90;;;;;;5022636;28;88664;-72
2021/04/08 10:55:44;;;;;;;;;;;5.00;90.00;;;;;;5022883;28;88053;-72
2021/04/08 10:58:24;;;;;;;;;;;5.00;90.00;;;;;;5022479;28;88280;-72
2021/04/08 11:00:50;;;;;;;;;;;5.00;89.80;;;;;;5018882;28;87145;-72
2021/04/08 11:03:15;;;;;;;;;;;5.00;89.70;;;;;;5019362;28;87146;-72
2021/04/08 11:05:41;;;;;;;;;;;5.10;89.30;;;;;;5020111;28;87246;-72
2021/04/08 11:08:07;;;;;;;;;;;5.10;89.40;;;;;;5021616;28;87161;-72
2021/04/08 11:10:32;;;;;;;;;;;5.00;90.00;;;;;;5022574;28;87126;-72
2021/04/08 11:12:59;;;;;;;;;;;5.10;89.40;;;;;;5025530;28;87867;-72
2021/04/08 11:15:29;;;;;;;;;;;5.00;89.50;;;;;;5023008;28;87156;-71
2021/04/08 11:17:58;;;;;;;;;;;5.00;89.50;;;;;;5019696;28;88658;-72
2021/04/08 11:20:26;;;;;;;;;;;5.10;89.60;;;;;;5018128;28;88103;-72
2021/04/08 11:22:52;;;;;;;;;;;5.10;89.60;;;;;;5020838;28;88327;-72
2021/04/08 11:25:18;;;;;;;;;;;5.10;89.80;;;;;;5019699;28;87713;-71
2021/04/08 11:27:44;;;;;;;;;;;5.20;90.00;;;;;;5021131;28;87144;-72
2021/04/08 11:30:14;;;;;;;;;;;5.20;90.00;;;;;;5021696;28;87152;-72
2021/04/08 11:32:44;;;;;;;;;;;5.20;90.00;;;;;;5021195;28;88072;-72
2021/04/08 11:35:20;;;;;;;;;;;5.20;90.10;;;;;;5022171;28;87049;-72
2021/04/08 11:37:46;;;;;;;;;;;5.20;90.00;;;;;;5018336;28;88141;-72
2021/04/08 11:40:12;;;;;;;;;;;5.20;90.10;;;;;;5018566;28;87105;-72
2021/04/08 11:42:39;;;;;;;;;;;5.20;90.10;;;;;;5019598;28;87164;-72
2021/04/08 11:45:25;;;;;;;;;;;5.20;90.10;;;;;;5017087;28;88578;-72
2021/04/08 11:47:58;;;;;;;;;;;5.20;90.00;;;;;;5018669;28;87130;-72
2021/04/08 11:50:28;;;;;;;;;;;5.20;90.30;;;;;;5018828;28;90227;-71
2021/04/08 11:53:00;;;;;;;;;;;5.20;90.20;;;;;;5018971;28;87628;-72
2021/04/08 11:55:41;;;;;;;;;;;5.20;90.40;;;;;;5021231;28;88699;-72
2021/04/08 11:58:07;;;;;;;;;;;5.20;90.10;;;;;;5021556;28;88130;-72
2021/04/08 12:00:33;;;;;;;;;;;5.20;90.00;;;;;;5021789;28;87159;-72
2021/04/08 12:03:11;;;;;;;;;;;5.20;89.90;;;;;;5020542;28;86506;-72
2021/04/08 12:05:37;;;;;;;;;;;5.20;89.80;;;;;;5017521;28;88685;-72
2021/04/08 12:08:03;;;;;;;;;;;5.20;89.80;;;;;;5020107;28;88111;-72
2021/04/08 12:10:29;;;;;;;;;;;5.20;89.80;;;;;;5021880;28;88128;-72
2021/04/08 12:12:56;;;;;;;;;;;5.20;89.90;;;;;;5019816;28;87917;-72
2021/04/08 12:15:35;;;;;;;;;;;5.20;90.00;;;;;;5017852;28;87176;-71
2021/04/08 12:18:01;;;;;;;;;;;5.20;90.00;;;;;;5021558;28;87475;-72
2021/04/08 12:20:27;;;;;;;;;;;5.20;90.00;;;;;;5024527;28;87362;-72
2021/04/08 12:22:53;;;;;;;;;;;5.20;90.00;;;;;;5022199;28;87363;-71
2021/04/08 12:25:20;;;;;;;;;;;5.20;90.00;;;;;;5019413;28;87520;-72
2021/04/08 12:27:46;;;;;;;;;;;5.30;89.90;;;;;;5017790;28;86436;-71
2021/04/08 12:30:12;;;;;;;;;;;5.30;89.90;;;;;;5020254;28;88213;-72
2021/04/08 12:32:38;;;;;;;;;;;5.30;89.80;;;;;;5019646;28;89512;-72
2021/04/08 12:35:04;;;;;;;;;;;5.30;89.70;;;;;;5016836;28;89880;-71
2021/04/08 12:37:30;;;;;;;;;;;5.30;89.80;;;;;;5017132;28;91060;-72
2021/04/08 12:39:55;;;;;;;;;;;5.20;89.90;;;;;;5018042;28;87602;-72
2021/04/08 12:42:22;;;;;;;;;;;5.30;90.00;;;;;;5022341;28;87158;-72
2021/04/08 12:44:48;;;;;;;;;;;5.30;89.80;;;;;;5016812;28;88350;-72
2021/04/08 12:47:13;;;;;;;;;;;5.30;89.70;;;;;;5016711;28;88412;-71
2021/04/08 12:49:39;;;;;;;;;;;5.30;89.70;;;;;;5016895;28;87151;-71
2021/04/08 12:52:05;;;;;;;;;;;5.30;89.80;;;;;;5021717;28;87408;-71
2021/04/08 12:54:31;;;;;;;;;;;5.30;89.90;;;;;;5021302;28;87118;-71
2021/04/08 12:56:57;;;;;;;;;;;5.30;90.00;;;;;;5019821;28;87532;-71
2021/04/08 12:59:23;;;;;;;;;;;5.30;90.00;;;;;;5018445;28;89070;-71
2021/04/08 13:01:48;;;;;;;;;;;5.30;90.00;;;;;;5021105;28;87165;-72
2021/04/08 13:04:14;;;;;;;;;;;5.30;90.00;;;;;;5023836;28;87916;-72
2021/04/08 13:06:39;;;;;;;;;;;5.40;89.90;;;;;;5021314;28;87128;-71
2021/04/08 13:09:05;;;;;;;;;;;5.40;90.00;;;;;;5020567;28;87642;-72
2021/04/08 13:11:30;;;;;;;;;;;5.40;90.00;;;;;;5019413;28;87670;-71
2021/04/08 13:13:57;;;;;;;;;;;5.40;90.00;;;;;;5019044;28;87270;-71
2021/04/08 13:16:23;;;;;;;;;;;5.50;90.00;;;;;;5016754;28;90597;-72
2021/04/08 13:18:48;;;;;;;;;;;5.50;90.00;;;;;;5017469;28;88207;-71
2021/04/08 13:21:14;;;;;;;;;;;5.50;90.10;;;;;;5019917;28;88564;-71
2021/04/08 13:23:39;;;;;;;;;;;5.50;90.10;;;;;;5018347;28;88473;-72
2021/04/08 13:26:05;;;;;;;;;;;5.50;90.10;;;;;;5017772;28;87124;-71
2021/04/08 13:28:30;;;;;;;;;;;5.50;90.10;;;;;;5018902;28;87145;-71
2021/04/08 13:30:56;;;;;;;;;;;5.50;90.10;;;;;;5019647;28;87971;-71
2021/04/08 13:33:21;;;;;;;;;;;5.50;90.10;;;;;;5020669;28;87170;-71
2021/04/08 13:35:47;;;;;;;;;;;5.50;90.10;;;;;;5020082;28;87684;-72
2021/04/08 13:38:12;;;;;;;;;;;5.50;90.00;;;;;;5018759;28;88227;-72
2021/04/08 13:40:38;;;;;;;;;;;5.50;90.00;;;;;;5020076;28;86447;-71
2021/04/08 13:43:03;;;;;;;;;;;5.50;90.00;;;;;;5020869;28;87138;-71
2021/04/08 13:45:29;;;;;;;;;;;5.60;90.00;;;;;;5021110;28;88335;-72
2021/04/08 13:47:55;;;;;;;;;;;5.60;89.90;;;;;;5015625;28;88759;-72
2021/04/08 13:50:21;;;;;;;;;;;5.60;90.00;;;;;;5016860;28;87598;-71
2021/04/08 13:52:46;;;;;;;;;;;5.60;90.00;;;;;;5017848;28;87157;-71
2021/04/08 13:55:14;;;;;;;;;;;5.60;89.80;;;;;;5018886;28;87427;-72
2021/04/08 13:57:40;;;;;;;;;;;5.60;89.90;;;;;;5017707;28;88286;-72
2021/04/08 14:00:08;;;;;;;;;;;5.60;89.90;;;;;;5018653;28;87230;-72
2021/04/08 14:02:34;;;;;;;;;;;5.60;89.80;;;;;;5015999;28;87509;-72
2021/04/08 14:04:59;;;;;;;;;;;5.60;89.90;;;;;;5016923;28;87521;-72
2021/04/08 14:07:25;;;;;;;;;;;5.60;89.90;;;;;;5021065;28;87167;-72
2021/04/08 14:09:51;;;;;;;;;;;5.60;89.80;;;;;;5018240;28;88170;-71
2021/04/08 14:12:16;;;;;;;;;;;5.60;89.90;;;;;;5021731;28;88108;-71
2021/04/08 14:14:42;;;;;;;;;;;5.60;90.00;;;;;;5023229;28;88288;-72
2021/04/08 14:17:07;;;;;;;;;;;5.60;89.90;;;;;;5021767;28;88148;-72
2021/04/08 14:19:33;;;;;;;;;;;5.60;89.80;;;;;;5021836;28;87241;-72
2021/04/08 14:21:58;;;;;;;;;;;5.60;89.70;;;;;;5022841;28;87553;-72
2021/04/08 14:24:24;;;;;;;;;;;5.60;89.50;;;;;;5023705;28;88158;-71
2021/04/08 14:26:50;;;;;;;;;;;5.60;89.50;;;;;;5021272;28;87828;-71
2021/04/08 14:29:15;;;;;;;;;;;5.70;89.60;;;;;;5022614;28;86821;-72
2021/04/08 14:31:42;;;;;;;;;;;5.60;89.60;;;;;;5020497;28;87123;-72